createdAt,value
2018-03-09T00:02:04.784Z,6.23
2018-03-09T00:04:40.126Z,6.21
2018-03-09T00:07:15.028Z,6.23
2018-03-09T00:09:49.863Z,6.18
2018-03-09T00:12:25.303Z,6.16
2018-03-09T00:15:00.380Z,6.11
2018-03-09T00:17:35.357Z,6.10
2018-03-09T00:20:10.628Z,6.02
2018-03-09T00:22:45.490Z,5.93
2018-03-09T00:25:20.791Z,5.91
2018-03-09T00:27:55.503Z,5.86
2018-03-09T00:30:30.467Z,5.82
2018-03-09T00:33:05.431Z,5.84
2018-03-09T00:35:40.411Z,5.78
2018-03-09T00:38:15.632Z,5.74
2018-03-09T00:40:50.639Z,5.76
2018-03-09T00:43:25.673Z,5.75
2018-03-09T00:46:00.599Z,5.74
2018-03-09T00:48:35.828Z,5.72
2018-03-09T00:51:17.829Z,5.72
2018-03-09T00:53:52.756Z,5.69
2018-03-09T00:56:28.269Z,5.67
2018-03-09T00:59:03.423Z,5.68
2018-03-09T01:01:38.543Z,5.67
2018-03-09T01:04:13.165Z,5.64
2018-03-09T01:06:48.475Z,5.66
2018-03-09T01:09:23.802Z,5.64
2018-03-09T01:11:58.626Z,5.58
2018-03-09T01:14:33.530Z,5.56
2018-03-09T01:17:08.654Z,5.56
2018-03-09T01:19:43.480Z,5.57
2018-03-09T01:22:18.499Z,5.55
2018-03-09T01:24:53.594Z,5.48
2018-03-09T01:27:28.586Z,5.45
2018-03-09T01:30:03.331Z,5.48
2018-03-09T01:32:38.551Z,5.51
2018-03-09T01:35:13.666Z,5.54
2018-03-09T01:37:48.514Z,5.55
2018-03-09T01:40:23.830Z,5.59
2018-03-09T01:42:58.634Z,5.57
2018-03-09T01:45:33.639Z,5.56
2018-03-09T01:48:08.639Z,5.54
2018-03-09T01:50:43.626Z,5.51
2018-03-09T01:53:18.983Z,5.45
2018-03-09T01:55:53.819Z,5.40
2018-03-09T01:58:28.960Z,5.46
2018-03-09T02:01:04.592Z,5.44
2018-03-09T02:03:39.858Z,5.41
2018-03-09T02:06:14.662Z,5.39
2018-03-09T02:08:49.500Z,5.40
2018-03-09T02:11:24.046Z,5.38
2018-03-09T02:13:58.639Z,5.38
2018-03-09T02:16:33.757Z,5.32
2018-03-09T02:19:08.827Z,5.32
2018-03-09T02:21:43.642Z,5.35
2018-03-09T02:24:18.726Z,5.33
2018-03-09T02:26:53.723Z,5.31
2018-03-09T02:29:28.716Z,5.36
2018-03-09T02:32:03.780Z,5.35
2018-03-09T02:34:38.719Z,5.35
2018-03-09T02:37:13.699Z,5.31
2018-03-09T02:39:48.796Z,5.30
2018-03-09T02:42:23.806Z,5.28
2018-03-09T02:44:58.760Z,5.25
2018-03-09T02:47:33.987Z,5.23
2018-03-09T02:50:08.689Z,5.21
2018-03-09T02:52:43.710Z,5.25
2018-03-09T02:55:18.835Z,5.17
2018-03-09T02:57:53.747Z,5.14
2018-03-09T03:00:28.843Z,5.16
2018-03-09T03:03:03.699Z,5.11
2018-03-09T03:05:38.941Z,5.10
2018-03-09T03:08:13.784Z,5.17
2018-03-09T03:10:49.022Z,5.15
2018-03-09T03:13:24.433Z,5.15
2018-03-09T03:15:59.952Z,5.11
2018-03-09T03:18:34.924Z,5.14
2018-03-09T03:21:10.194Z,5.15
2018-03-09T03:23:45.156Z,5.18
2018-03-09T03:26:20.098Z,5.15
2018-03-09T03:28:55.135Z,5.17
2018-03-09T03:31:30.224Z,5.15
2018-03-09T03:34:05.450Z,5.29
2018-03-09T03:36:40.879Z,5.32
2018-03-09T03:39:16.025Z,5.37
2018-03-09T03:41:50.955Z,5.41
2018-03-09T03:44:25.630Z,5.39
2018-03-09T03:47:00.899Z,5.39
2018-03-09T03:49:35.871Z,5.40
2018-03-09T03:52:10.906Z,5.40
2018-03-09T03:54:45.428Z,5.41
2018-03-09T03:57:20.279Z,5.40
2018-03-09T03:59:55.027Z,5.44
2018-03-09T04:02:29.955Z,5.44
2018-03-09T04:05:05.116Z,5.45
2018-03-09T04:07:39.954Z,5.43
2018-03-09T04:10:15.310Z,5.40
2018-03-09T04:12:50.119Z,5.42
2018-03-09T04:15:25.251Z,5.37
2018-03-09T04:18:00.299Z,5.39
2018-03-09T04:20:35.506Z,5.38
2018-03-09T04:23:10.943Z,5.40
2018-03-09T04:25:45.966Z,5.46
2018-03-09T04:28:21.390Z,5.40
2018-03-09T04:30:56.120Z,5.45
2018-03-09T04:33:31.299Z,5.47
2018-03-09T04:36:06.048Z,5.47
2018-03-09T04:38:41.036Z,5.45
2018-03-09T04:41:15.458Z,5.33
2018-03-09T04:43:49.999Z,5.26
2018-03-09T04:46:25.146Z,5.23
2018-03-09T04:48:59.640Z,5.20
2018-03-09T04:51:34.959Z,5.18
2018-03-09T04:54:10.093Z,5.21
2018-03-09T04:56:44.907Z,5.16
2018-03-09T04:59:19.575Z,5.11
2018-03-09T05:01:54.510Z,5.11
2018-03-09T05:04:29.533Z,5.10
2018-03-09T05:07:05.003Z,5.02
2018-03-09T05:09:39.639Z,5.02
2018-03-09T05:12:15.054Z,5.02
2018-03-09T05:14:49.934Z,5.01
2018-03-09T05:17:25.095Z,5.03
2018-03-09T05:20:00.430Z,5.02
2018-03-09T05:22:35.323Z,5.00
2018-03-09T05:25:10.369Z,5.01
2018-03-09T05:27:45.420Z,5.05
2018-03-09T05:30:21.064Z,4.98
2018-03-09T05:32:56.161Z,5.05
2018-03-09T05:35:31.143Z,5.00
2018-03-09T05:38:06.291Z,5.10
2018-03-09T05:40:40.587Z,5.10
2018-03-09T05:43:15.411Z,5.14
2018-03-09T05:45:50.631Z,5.13
2018-03-09T05:48:25.666Z,5.14
2018-03-09T05:51:00.204Z,5.11
2018-03-09T05:53:35.330Z,5.13
2018-03-09T05:56:10.117Z,5.14
2018-03-09T05:58:44.979Z,5.18
2018-03-09T06:01:19.636Z,5.16
2018-03-09T06:03:54.501Z,5.15
2018-03-09T06:06:29.766Z,5.14
2018-03-09T06:09:04.682Z,5.14
2018-03-09T06:11:40.067Z,5.17
2018-03-09T06:14:15.222Z,5.14
2018-03-09T06:16:50.249Z,5.13
2018-03-09T06:19:25.346Z,5.18
2018-03-09T06:22:00.390Z,5.23
2018-03-09T06:24:35.058Z,5.21
2018-03-09T06:27:10.568Z,5.29
2018-03-09T06:29:45.305Z,5.30
2018-03-09T06:32:20.287Z,5.41
2018-03-09T06:34:55.610Z,5.46
2018-03-09T06:37:31.171Z,5.48
2018-03-09T06:40:06.434Z,5.46
2018-03-09T06:42:41.735Z,5.47
2018-03-09T06:45:16.814Z,5.47
2018-03-09T06:47:51.905Z,5.47
2018-03-09T06:50:27.240Z,5.50
2018-03-09T06:53:02.481Z,5.47
2018-03-09T06:55:38.226Z,5.49
2018-03-09T06:58:13.476Z,5.47
2018-03-09T07:00:48.059Z,5.50
2018-03-09T07:03:23.575Z,5.54
2018-03-09T07:05:58.724Z,5.50
2018-03-09T07:08:34.174Z,5.54
2018-03-09T07:11:08.841Z,5.54
2018-03-09T07:13:43.671Z,5.56
2018-03-09T07:16:18.626Z,5.58
2018-03-09T07:18:53.555Z,5.60
2018-03-09T07:21:27.912Z,5.61
2018-03-09T07:24:03.347Z,5.65
2018-03-09T07:26:38.286Z,5.70
2018-03-09T07:29:13.346Z,5.76
2018-03-09T07:31:48.393Z,5.79
2018-03-09T07:34:23.649Z,5.84
2018-03-09T07:36:58.610Z,5.79
2018-03-09T07:39:33.660Z,5.81
2018-03-09T07:42:08.977Z,5.86
2018-03-09T07:44:43.965Z,5.88
2018-03-09T07:47:18.915Z,5.87
2018-03-09T07:49:54.001Z,5.93
2018-03-09T07:52:29.760Z,5.99
2018-03-09T07:55:04.466Z,5.96
2018-03-09T07:57:39.811Z,5.98
2018-03-09T08:00:15.012Z,5.98
2018-03-09T08:02:52.334Z,6.06
2018-03-09T08:05:27.569Z,6.11
2018-03-09T08:08:02.854Z,6.16
2018-03-09T08:10:38.479Z,6.23
2018-03-09T08:13:13.164Z,6.24
2018-03-09T08:15:47.679Z,6.32
2018-03-09T08:18:22.976Z,6.40
2018-03-09T08:20:57.621Z,6.46
2018-03-09T08:23:33.425Z,6.57
2018-03-09T08:26:08.959Z,6.63
2018-03-09T08:28:43.893Z,6.75
2018-03-09T08:31:19.203Z,6.85
2018-03-09T08:33:53.794Z,6.90
2018-03-09T08:36:28.828Z,6.87
2018-03-09T08:39:03.541Z,6.86
2018-03-09T08:41:38.792Z,6.85
2018-03-09T08:46:54.027Z,6.94
2018-03-09T08:49:29.039Z,6.93
2018-03-09T08:52:04.183Z,6.93
2018-03-09T08:54:39.193Z,6.95
2018-03-09T08:57:14.507Z,7.00
2018-03-09T08:59:49.695Z,7.07
2018-03-09T09:02:24.952Z,7.05
2018-03-09T09:05:00.059Z,6.99
2018-03-09T09:07:35.567Z,7.03
2018-03-09T09:10:10.947Z,7.02
2018-03-09T09:12:46.083Z,7.00
2018-03-09T09:15:21.187Z,7.00
2018-03-09T09:17:56.768Z,6.97
2018-03-09T09:20:31.977Z,6.98
2018-03-09T09:23:07.196Z,7.03
2018-03-09T09:25:42.685Z,7.05
2018-03-09T09:28:17.990Z,7.08
2018-03-09T09:30:52.820Z,7.19
2018-03-09T09:33:27.863Z,7.19
2018-03-09T09:36:04.072Z,7.25
2018-03-09T09:38:38.815Z,7.33
2018-03-09T09:41:14.036Z,7.30
2018-03-09T09:43:49.046Z,7.25
2018-03-09T09:46:24.071Z,7.23
2018-03-09T09:48:59.190Z,7.23
2018-03-09T09:51:34.983Z,7.22
2018-03-09T09:54:10.231Z,7.22
2018-03-09T09:56:45.150Z,7.26
2018-03-09T09:59:19.832Z,7.35
2018-03-09T10:01:54.954Z,7.43
2018-03-09T10:04:30.162Z,7.58
2018-03-09T10:07:05.112Z,7.70
2018-03-09T10:09:40.179Z,7.77
2018-03-09T10:12:15.699Z,7.84
2018-03-09T10:14:50.983Z,7.88
2018-03-09T10:17:25.884Z,7.92
2018-03-09T10:20:00.836Z,7.94
2018-03-09T10:22:36.068Z,7.89
2018-03-09T10:25:11.076Z,7.85
2018-03-09T10:27:46.114Z,7.82
2018-03-09T10:30:21.244Z,7.85
2018-03-09T10:32:57.536Z,7.90
2018-03-09T10:35:32.902Z,8.00
2018-03-09T10:38:09.227Z,7.99
2018-03-09T10:40:44.340Z,7.97
2018-03-09T10:43:19.356Z,7.89
2018-03-09T10:45:54.876Z,7.86
2018-03-09T10:48:29.991Z,8.05
2018-03-09T10:51:05.164Z,8.09
2018-03-09T10:53:39.988Z,8.14
2018-03-09T10:56:15.167Z,8.14
2018-03-09T10:58:49.971Z,8.14
2018-03-09T11:01:25.182Z,8.20
2018-03-09T11:04:00.027Z,8.29
2018-03-09T11:06:35.002Z,8.26
2018-03-09T11:09:10.276Z,8.26
2018-03-09T11:11:44.980Z,8.20
2018-03-09T11:14:20.201Z,8.10
2018-03-09T11:16:54.955Z,8.07
2018-03-09T11:19:30.015Z,8.07
2018-03-09T11:22:05.092Z,8.09
2018-03-09T11:24:40.135Z,8.15
2018-03-09T11:27:15.347Z,8.22
2018-03-09T11:29:50.284Z,8.20
2018-03-09T11:32:25.336Z,8.16
2018-03-09T11:35:01.354Z,8.15
2018-03-09T11:37:36.090Z,8.16
2018-03-09T11:40:11.229Z,8.13
2018-03-09T11:42:46.259Z,8.11
2018-03-09T11:45:21.506Z,8.12
2018-03-09T11:47:56.479Z,8.18
2018-03-09T11:50:31.880Z,8.18
2018-03-09T11:53:07.019Z,8.21
2018-03-09T11:55:42.008Z,8.27
2018-03-09T11:58:17.297Z,8.28
2018-03-09T12:00:52.142Z,8.30
2018-03-09T12:03:26.991Z,8.36
2018-03-09T12:06:02.050Z,8.41
2018-03-09T12:08:37.105Z,8.54
2018-03-09T12:11:12.003Z,8.56
2018-03-09T12:13:47.065Z,8.51
2018-03-09T12:16:22.407Z,8.45
2018-03-09T12:18:57.691Z,8.39
2018-03-09T12:21:33.022Z,8.41
2018-03-09T12:24:08.043Z,8.56
2018-03-09T12:26:43.055Z,8.76
2018-03-09T12:29:18.071Z,8.97
2018-03-09T12:31:53.113Z,9.11
2018-03-09T12:34:29.007Z,9.13
2018-03-09T12:37:04.266Z,9.22
2018-03-09T12:39:39.472Z,9.47
2018-03-09T12:42:14.498Z,9.76
2018-03-09T12:44:49.548Z,10.09
2018-03-09T12:47:25.174Z,10.37
2018-03-09T12:50:00.175Z,10.47
2018-03-09T12:52:35.163Z,10.34
2018-03-09T12:55:10.686Z,10.14
2018-03-09T12:57:45.709Z,10.13
2018-03-09T13:00:20.415Z,10.12
2018-03-09T13:02:55.268Z,10.01
2018-03-09T13:05:30.235Z,9.94
2018-03-09T13:08:05.229Z,9.96
2018-03-09T13:10:40.015Z,9.99
2018-03-09T13:13:17.215Z,9.99
2018-03-09T13:15:53.760Z,9.91
2018-03-09T13:18:33.805Z,9.91
2018-03-09T13:21:09.620Z,9.92
2018-03-09T13:23:44.511Z,9.90
2018-03-09T13:26:19.651Z,9.85
2018-03-09T13:28:54.596Z,9.81
2018-03-09T13:31:29.630Z,9.86
2018-03-09T13:34:04.451Z,9.94
2018-03-09T13:36:39.413Z,10.09
2018-03-09T13:39:14.451Z,10.19
2018-03-09T13:41:49.587Z,10.33
2018-03-09T13:44:24.645Z,10.51
2018-03-09T13:46:59.875Z,10.65
2018-03-09T13:49:35.203Z,10.75
2018-03-09T13:52:10.652Z,10.82
2018-03-09T13:54:46.195Z,10.84
2018-03-09T13:57:21.439Z,10.87
2018-03-09T13:59:56.524Z,10.85
2018-03-09T14:02:31.672Z,10.88
2018-03-09T14:05:07.262Z,10.85
2018-03-09T14:07:42.239Z,10.84
2018-03-09T14:10:17.515Z,10.85
2018-03-09T14:12:52.466Z,10.87
2018-03-09T14:15:26.804Z,10.92
2018-03-09T14:18:01.777Z,10.96
2018-03-09T14:20:36.955Z,11.08
2018-03-09T14:23:11.792Z,11.17
2018-03-09T14:25:47.279Z,11.20
2018-03-09T14:28:22.523Z,11.09
2018-03-09T14:30:57.433Z,11.03
2018-03-09T14:33:32.030Z,10.94
2018-03-09T14:36:07.502Z,10.99
2018-03-09T14:38:42.367Z,10.99
2018-03-09T14:41:17.406Z,11.13
2018-03-09T14:43:52.356Z,11.26
2018-03-09T14:46:27.603Z,11.28
2018-03-09T14:49:02.492Z,11.26
2018-03-09T14:51:37.459Z,11.29
2018-03-09T14:54:12.659Z,11.38
2018-03-09T14:56:47.716Z,11.46
2018-03-09T14:59:23.272Z,11.55
2018-03-09T15:01:58.386Z,11.58
2018-03-09T15:04:33.630Z,11.60
2018-03-09T15:07:09.707Z,11.63
2018-03-09T15:09:44.486Z,11.60
2018-03-09T15:12:19.695Z,11.59
2018-03-09T15:14:54.857Z,11.62
2018-03-09T15:17:29.807Z,11.86
2018-03-09T15:20:04.435Z,12.12
2018-03-09T15:22:39.707Z,12.24
2018-03-09T15:25:15.070Z,12.19
2018-03-09T15:27:50.035Z,12.12
2018-03-09T15:30:24.810Z,12.03
2018-03-09T15:32:59.664Z,12.03
2018-03-09T15:35:34.554Z,12.00
2018-03-09T15:38:09.374Z,11.93
2018-03-09T15:40:44.635Z,11.90
2018-03-09T15:43:19.959Z,11.93
2018-03-09T15:45:54.836Z,12.00
2018-03-09T15:48:29.470Z,12.14
2018-03-09T15:51:04.228Z,12.24
2018-03-09T15:53:39.503Z,12.27
2018-03-09T15:56:14.772Z,12.31
2018-03-09T15:58:50.019Z,12.33
2018-03-09T16:01:25.050Z,12.33
2018-03-09T16:04:00.529Z,12.35
2018-03-09T16:06:35.632Z,12.36
2018-03-09T16:09:10.948Z,12.32
2018-03-09T16:11:47.596Z,12.29
2018-03-09T16:14:22.868Z,12.20
2018-03-09T16:16:57.589Z,12.12
2018-03-09T16:19:32.663Z,12.04
2018-03-09T16:22:07.020Z,12.01
2018-03-09T16:24:41.668Z,12.02
2018-03-09T16:27:16.833Z,11.97
2018-03-09T16:29:51.897Z,11.89
2018-03-09T16:32:27.158Z,11.89
2018-03-09T16:35:02.621Z,11.78
2018-03-09T16:37:37.883Z,11.59
2018-03-09T16:40:13.010Z,11.49
2018-03-09T16:42:47.882Z,11.34
2018-03-09T16:45:22.683Z,11.23
2018-03-09T16:47:57.687Z,11.19
2018-03-09T16:50:32.811Z,11.15
2018-03-09T16:53:07.874Z,11.12
2018-03-09T16:55:43.474Z,11.05
2018-03-09T16:58:18.947Z,10.97
2018-03-09T17:00:53.765Z,10.85
2018-03-09T17:03:28.814Z,10.84
2018-03-09T17:06:03.861Z,10.83
2018-03-09T17:08:38.731Z,10.77
2018-03-09T17:11:14.043Z,10.76
2018-03-09T17:13:48.979Z,10.75
2018-03-09T17:16:24.438Z,10.73
2018-03-09T17:18:59.328Z,10.74
2018-03-09T17:21:34.670Z,10.68
2018-03-09T17:24:10.149Z,10.55
2018-03-09T17:26:45.459Z,10.35
2018-03-09T17:29:20.795Z,10.21
2018-03-09T17:31:55.850Z,10.05
2018-03-09T17:34:30.883Z,9.93
2018-03-09T17:37:04.819Z,9.78
2018-03-09T17:39:39.856Z,9.66
2018-03-09T17:42:15.310Z,9.44
2018-03-09T17:44:50.106Z,9.23
2018-03-09T17:47:25.010Z,9.18
2018-03-09T17:50:00.316Z,9.16
2018-03-09T17:52:35.230Z,9.12
2018-03-09T17:55:10.163Z,9.00
2018-03-09T17:57:45.212Z,8.83
2018-03-09T18:00:20.891Z,8.71
2018-03-09T18:02:55.760Z,8.67
2018-03-09T18:05:30.295Z,8.68
2018-03-09T18:08:05.128Z,8.57
2018-03-09T18:10:40.338Z,8.52
2018-03-09T18:13:15.550Z,8.51
2018-03-09T18:15:50.431Z,8.36
2018-03-09T18:18:25.898Z,8.24
2018-03-09T18:21:00.908Z,8.18
2018-03-09T18:23:48.508Z,8.07
2018-03-09T18:26:23.425Z,8.01
2018-03-09T18:28:58.160Z,8.02
2018-03-09T18:31:33.211Z,8.02
2018-03-09T18:34:08.064Z,8.01
2018-03-09T18:36:42.976Z,8.03
2018-03-09T18:39:18.198Z,8.01
2018-03-09T18:41:53.291Z,7.99
2018-03-09T18:44:28.218Z,7.97
2018-03-09T18:47:03.114Z,8.02
2018-03-09T18:49:38.409Z,7.97
2018-03-09T18:52:14.157Z,7.90
2018-03-09T18:54:49.014Z,7.98
2018-03-09T18:57:24.406Z,7.97
2018-03-09T19:00:00.059Z,8.03
2018-03-09T19:02:34.987Z,8.00
2018-03-09T19:05:10.375Z,7.99
2018-03-09T19:07:44.950Z,7.87
2018-03-09T19:10:20.182Z,7.81
2018-03-09T19:12:55.090Z,7.72
2018-03-09T19:15:30.070Z,7.65
2018-03-09T19:18:04.696Z,7.61
2018-03-09T19:20:39.031Z,7.56
2018-03-09T19:23:14.211Z,7.57
2018-03-09T19:25:49.236Z,7.49
2018-03-09T19:28:24.364Z,7.46
2018-03-09T19:30:59.235Z,7.53
2018-03-09T19:33:34.275Z,7.61
2018-03-09T19:36:10.411Z,7.57
2018-03-09T19:38:44.830Z,7.53
2018-03-09T19:41:20.091Z,7.51
2018-03-09T19:43:55.118Z,7.45
2018-03-09T19:46:30.325Z,7.43
2018-03-09T19:49:04.563Z,7.44
2018-03-09T19:51:39.281Z,7.47
2018-03-09T19:54:14.499Z,7.50
2018-03-09T19:56:49.987Z,7.45
2018-03-09T19:59:25.033Z,7.47
2018-03-09T20:02:00.106Z,7.44
2018-03-09T20:04:34.854Z,7.39
2018-03-09T20:07:10.395Z,7.39
2018-03-09T20:09:45.655Z,7.39
2018-03-09T20:12:20.337Z,7.37
2018-03-09T20:14:55.563Z,7.37
2018-03-09T20:17:30.555Z,7.37
2018-03-09T20:20:05.347Z,7.30
2018-03-09T20:22:40.400Z,7.27
2018-03-09T20:25:16.226Z,7.16
2018-03-09T20:27:50.596Z,7.20
2018-03-09T20:30:26.023Z,7.21
2018-03-09T20:33:01.344Z,7.20
2018-03-09T20:35:36.015Z,7.14
2018-03-09T20:38:11.104Z,7.19
2018-03-09T20:40:46.150Z,7.24
2018-03-09T20:43:21.400Z,7.18
2018-03-09T20:45:56.383Z,7.14
2018-03-09T20:48:31.384Z,7.15
2018-03-09T20:51:08.947Z,7.15
2018-03-09T20:53:43.244Z,7.19
2018-03-09T20:56:18.523Z,7.23
2018-03-09T20:58:53.188Z,7.25
2018-03-09T21:01:28.154Z,7.15
2018-03-09T21:04:03.304Z,7.11
2018-03-09T21:06:38.274Z,7.17
2018-03-09T21:09:13.571Z,7.14
2018-03-09T21:11:48.627Z,7.15
2018-03-09T21:14:23.699Z,7.11
2018-03-09T21:16:58.263Z,7.07
2018-03-09T21:19:33.276Z,6.98
2018-03-09T21:22:08.740Z,6.94
2018-03-09T21:24:44.198Z,6.88
2018-03-09T21:27:18.792Z,6.97
2018-03-09T21:29:53.276Z,7.15
2018-03-09T21:32:28.412Z,7.29
2018-03-09T21:35:03.255Z,7.27
2018-03-09T21:37:38.398Z,7.25
2018-03-09T21:40:13.531Z,7.20
2018-03-09T21:42:48.361Z,7.13
2018-03-09T21:45:23.550Z,7.05
2018-03-09T21:47:58.384Z,7.08
2018-03-09T21:50:33.318Z,7.09
2018-03-09T21:53:08.567Z,7.06
2018-03-09T21:55:43.598Z,7.03
2018-03-09T21:58:18.562Z,6.97
2018-03-09T22:00:53.270Z,6.89
2018-03-09T22:03:27.606Z,6.86
2018-03-09T22:06:02.342Z,6.87
2018-03-09T22:08:36.684Z,6.91
2018-03-09T22:11:12.239Z,6.83
2018-03-09T22:13:47.336Z,6.74
2018-03-09T22:16:22.279Z,6.73
2018-03-09T22:18:57.572Z,6.73
2018-03-09T22:21:32.447Z,6.74
2018-03-09T22:24:07.411Z,6.71
2018-03-09T22:26:42.451Z,6.72
2018-03-09T22:29:16.784Z,6.76
2018-03-09T22:31:52.216Z,6.74
2018-03-09T22:34:26.850Z,6.73
2018-03-09T22:37:01.916Z,6.70
2018-03-09T22:39:36.743Z,6.70
2018-03-09T22:42:11.194Z,6.69
2018-03-09T22:44:46.315Z,6.73
2018-03-09T22:47:21.898Z,6.99
2018-03-09T22:49:56.548Z,7.32
2018-03-09T22:52:31.806Z,7.59
2018-03-09T22:55:06.434Z,7.77
2018-03-09T22:57:41.575Z,7.87
2018-03-09T23:00:16.699Z,7.97
2018-03-09T23:02:51.847Z,8.05
2018-03-09T23:05:26.878Z,8.09
2018-03-09T23:08:01.745Z,8.15
2018-03-09T23:10:36.896Z,8.25
2018-03-09T23:13:12.718Z,8.30
2018-03-09T23:15:47.544Z,8.25
2018-03-09T23:18:22.034Z,8.18
2018-03-09T23:20:57.522Z,8.14
2018-03-09T23:23:32.511Z,8.17
2018-03-09T23:26:07.552Z,8.17
2018-03-09T23:28:41.899Z,8.17
2018-03-09T23:31:16.967Z,8.18
2018-03-09T23:33:51.811Z,8.17
2018-03-09T23:36:26.547Z,8.09
2018-03-09T23:39:01.777Z,8.08
2018-03-09T23:41:36.834Z,8.02
2018-03-09T23:44:11.695Z,7.92
2018-03-09T23:46:46.617Z,7.96
2018-03-09T23:49:22.054Z,7.91
2018-03-09T23:51:56.692Z,7.89
2018-03-09T23:54:31.643Z,7.91
2018-03-09T23:57:06.638Z,7.88
2018-03-09T23:59:42.123Z,7.84
